sensor_id;sensor_type;location;lat;lon;timestamp;P1;durP1;ratioP1;P2;durP2;ratioP2
84711;SDS011;74937;44.534;18.684;2024-02-04T00:01:55;240.82;;;105.20;;
84711;SDS011;74937;44.534;18.684;2024-02-04T00:04:22;241.73;;;103.93;;
84711;SDS011;74937;44.534;18.684;2024-02-04T00:06:48;283.30;;;118.97;;
84711;SDS011;74937;44.534;18.684;2024-02-04T00:09:14;274.63;;;115.80;;
84711;SDS011;74937;44.534;18.684;2024-02-04T00:11:40;280.42;;;117.18;;
84711;SDS011;74937;44.534;18.684;2024-02-04T00:14:05;313.52;;;122.05;;
84711;SDS011;74937;44.534;18.684;2024-02-04T00:16:31;289.38;;;113.32;;
84711;SDS011;74937;44.534;18.684;2024-02-04T00:18:57;277.83;;;113.72;;
84711;SDS011;74937;44.534;18.684;2024-02-04T00:21:22;252.40;;;104.63;;
84711;SDS011;74937;44.534;18.684;2024-02-04T00:23:48;249.90;;;101.80;;
84711;SDS011;74937;44.534;18.684;2024-02-04T00:26:14;246.95;;;98.50;;
84711;SDS011;74937;44.534;18.684;2024-02-04T00:28:40;253.45;;;101.85;;
84711;SDS011;74937;44.534;18.684;2024-02-04T00:31:08;249.30;;;101.57;;
84711;SDS011;74937;44.534;18.684;2024-02-04T00:33:34;250.75;;;106.03;;
84711;SDS011;74937;44.534;18.684;2024-02-04T00:38:26;179.52;;;78.32;;
84711;SDS011;74937;44.534;18.684;2024-02-04T00:40:52;228.82;;;91.28;;
84711;SDS011;74937;44.534;18.684;2024-02-04T00:43:19;203.52;;;86.90;;
84711;SDS011;74937;44.534;18.684;2024-02-04T00:45:45;210.38;;;87.18;;
84711;SDS011;74937;44.534;18.684;2024-02-04T00:48:29;189.95;;;82.35;;
84711;SDS011;74937;44.534;18.684;2024-02-04T00:50:55;177.35;;;77.85;;
84711;SDS011;74937;44.534;18.684;2024-02-04T00:53:21;177.30;;;80.55;;
84711;SDS011;74937;44.534;18.684;2024-02-04T00:55:47;170.95;;;73.90;;
84711;SDS011;74937;44.534;18.684;2024-02-04T00:58:12;155.77;;;71.05;;
84711;SDS011;74937;44.534;18.684;2024-02-04T01:00:38;170.02;;;73.30;;
84711;SDS011;74937;44.534;18.684;2024-02-04T01:03:04;150.93;;;64.53;;
84711;SDS011;74937;44.534;18.684;2024-02-04T01:05:29;146.13;;;62.95;;
84711;SDS011;74937;44.534;18.684;2024-02-04T01:07:55;150.77;;;65.97;;
84711;SDS011;74937;44.534;18.684;2024-02-04T01:10:21;148.77;;;66.80;;
84711;SDS011;74937;44.534;18.684;2024-02-04T01:12:47;169.48;;;71.32;;
84711;SDS011;74937;44.534;18.684;2024-02-04T01:15:12;150.35;;;70.35;;
84711;SDS011;74937;44.534;18.684;2024-02-04T01:17:38;154.93;;;69.70;;
84711;SDS011;74937;44.534;18.684;2024-02-04T01:20:04;187.48;;;79.78;;
84711;SDS011;74937;44.534;18.684;2024-02-04T01:22:30;176.00;;;76.80;;
84711;SDS011;74937;44.534;18.684;2024-02-04T01:24:56;191.65;;;83.35;;
84711;SDS011;74937;44.534;18.684;2024-02-04T01:27:22;161.82;;;75.10;;
84711;SDS011;74937;44.534;18.684;2024-02-04T01:29:48;164.90;;;76.13;;
84711;SDS011;74937;44.534;18.684;2024-02-04T01:32:13;169.32;;;72.43;;
84711;SDS011;74937;44.534;18.684;2024-02-04T01:34:40;150.82;;;67.65;;
84711;SDS011;74937;44.534;18.684;2024-02-04T01:37:05;133.20;;;60.58;;
84711;SDS011;74937;44.534;18.684;2024-02-04T01:39:31;115.60;;;51.83;;
84711;SDS011;74937;44.534;18.684;2024-02-04T01:41:57;114.65;;;49.35;;
84711;SDS011;74937;44.534;18.684;2024-02-04T01:44:23;103.78;;;46.47;;
84711;SDS011;74937;44.534;18.684;2024-02-04T01:46:49;100.35;;;45.75;;
84711;SDS011;74937;44.534;18.684;2024-02-04T01:49:15;95.15;;;45.28;;
84711;SDS011;74937;44.534;18.684;2024-02-04T01:51:40;104.80;;;46.63;;
84711;SDS011;74937;44.534;18.684;2024-02-04T01:54:07;108.40;;;52.13;;
84711;SDS011;74937;44.534;18.684;2024-02-04T01:56:33;108.68;;;52.40;;
84711;SDS011;74937;44.534;18.684;2024-02-04T01:58:59;120.50;;;55.63;;
84711;SDS011;74937;44.534;18.684;2024-02-04T02:01:26;133.00;;;61.28;;
84711;SDS011;74937;44.534;18.684;2024-02-04T02:03:52;139.02;;;60.38;;
84711;SDS011;74937;44.534;18.684;2024-02-04T02:06:17;132.10;;;56.58;;
84711;SDS011;74937;44.534;18.684;2024-02-04T02:08:44;129.30;;;57.78;;
84711;SDS011;74937;44.534;18.684;2024-02-04T02:11:32;117.95;;;54.58;;
84711;SDS011;74937;44.534;18.684;2024-02-04T02:14:14;126.10;;;55.03;;
84711;SDS011;74937;44.534;18.684;2024-02-04T02:16:43;135.68;;;60.20;;
84711;SDS011;74937;44.534;18.684;2024-02-04T02:19:57;104.22;;;44.30;;
84711;SDS011;74937;44.534;18.684;2024-02-04T02:25:04;87.45;;;41.47;;
84711;SDS011;74937;44.534;18.684;2024-02-04T02:27:33;83.28;;;40.40;;
84711;SDS011;74937;44.534;18.684;2024-02-04T02:29:58;96.80;;;45.33;;
84711;SDS011;74937;44.534;18.684;2024-02-04T02:32:24;126.68;;;56.92;;
84711;SDS011;74937;44.534;18.684;2024-02-04T02:34:50;145.95;;;63.13;;
84711;SDS011;74937;44.534;18.684;2024-02-04T02:40:01;162.48;;;70.20;;
84711;SDS011;74937;44.534;18.684;2024-02-04T02:42:36;153.32;;;65.80;;
84711;SDS011;74937;44.534;18.684;2024-02-04T02:45:05;137.48;;;62.90;;
84711;SDS011;74937;44.534;18.684;2024-02-04T02:47:32;137.18;;;63.25;;
84711;SDS011;74937;44.534;18.684;2024-02-04T02:50:00;131.18;;;57.75;;
84711;SDS011;74937;44.534;18.684;2024-02-04T02:52:26;123.00;;;54.78;;
84711;SDS011;74937;44.534;18.684;2024-02-04T02:54:52;104.30;;;50.17;;
84711;SDS011;74937;44.534;18.684;2024-02-04T02:57:18;103.65;;;47.90;;
84711;SDS011;74937;44.534;18.684;2024-02-04T02:59:43;104.90;;;50.30;;
84711;SDS011;74937;44.534;18.684;2024-02-04T03:02:09;111.15;;;49.53;;
84711;SDS011;74937;44.534;18.684;2024-02-04T03:04:36;107.53;;;48.85;;
84711;SDS011;74937;44.534;18.684;2024-02-04T03:07:02;101.05;;;47.70;;
84711;SDS011;74937;44.534;18.684;2024-02-04T03:09:28;110.63;;;49.25;;
84711;SDS011;74937;44.534;18.684;2024-02-04T03:11:53;112.70;;;48.35;;
84711;SDS011;74937;44.534;18.684;2024-02-04T03:14:19;105.47;;;49.58;;
84711;SDS011;74937;44.534;18.684;2024-02-04T03:16:45;101.25;;;48.60;;
84711;SDS011;74937;44.534;18.684;2024-02-04T03:19:11;110.97;;;50.50;;
84711;SDS011;74937;44.534;18.684;2024-02-04T03:21:37;107.07;;;50.28;;
84711;SDS011;74937;44.534;18.684;2024-02-04T03:24:04;109.85;;;52.15;;
84711;SDS011;74937;44.534;18.684;2024-02-04T03:26:30;100.18;;;46.88;;
84711;SDS011;74937;44.534;18.684;2024-02-04T03:28:55;94.90;;;45.03;;
84711;SDS011;74937;44.534;18.684;2024-02-04T03:31:22;91.18;;;42.95;;
84711;SDS011;74937;44.534;18.684;2024-02-04T03:33:48;99.53;;;45.58;;
84711;SDS011;74937;44.534;18.684;2024-02-04T03:36:17;93.07;;;46.13;;
84711;SDS011;74937;44.534;18.684;2024-02-04T03:38:47;104.53;;;48.33;;
84711;SDS011;74937;44.534;18.684;2024-02-04T03:41:12;106.65;;;48.30;;
84711;SDS011;74937;44.534;18.684;2024-02-04T03:43:38;90.25;;;45.40;;
84711;SDS011;74937;44.534;18.684;2024-02-04T03:46:04;120.53;;;49.85;;
84711;SDS011;74937;44.534;18.684;2024-02-04T03:48:29;96.28;;;46.85;;
84711;SDS011;74937;44.534;18.684;2024-02-04T03:50:55;111.15;;;49.40;;
84711;SDS011;74937;44.534;18.684;2024-02-04T03:53:21;115.55;;;55.10;;
84711;SDS011;74937;44.534;18.684;2024-02-04T03:55:49;119.85;;;58.38;;
84711;SDS011;74937;44.534;18.684;2024-02-04T03:58:14;117.85;;;54.17;;
84711;SDS011;74937;44.534;18.684;2024-02-04T04:00:40;115.97;;;56.13;;
84711;SDS011;74937;44.534;18.684;2024-02-04T04:03:06;125.50;;;57.58;;
84711;SDS011;74937;44.534;18.684;2024-02-04T04:05:32;117.55;;;52.28;;
84711;SDS011;74937;44.534;18.684;2024-02-04T04:07:57;102.20;;;49.65;;
84711;SDS011;74937;44.534;18.684;2024-02-04T04:10:23;108.95;;;48.97;;
84711;SDS011;74937;44.534;18.684;2024-02-04T04:12:49;109.35;;;47.70;;
84711;SDS011;74937;44.534;18.684;2024-02-04T04:15:14;103.40;;;49.00;;
84711;SDS011;74937;44.534;18.684;2024-02-04T04:17:40;122.15;;;53.88;;
84711;SDS011;74937;44.534;18.684;2024-02-04T04:20:06;117.57;;;55.80;;
84711;SDS011;74937;44.534;18.684;2024-02-04T04:22:33;104.72;;;52.85;;
84711;SDS011;74937;44.534;18.684;2024-02-04T04:24:58;112.47;;;50.85;;
84711;SDS011;74937;44.534;18.684;2024-02-04T04:27:24;112.07;;;51.97;;
84711;SDS011;74937;44.534;18.684;2024-02-04T04:29:50;97.20;;;47.25;;
84711;SDS011;74937;44.534;18.684;2024-02-04T04:32:16;102.57;;;50.38;;
84711;SDS011;74937;44.534;18.684;2024-02-04T04:34:41;110.15;;;49.15;;
84711;SDS011;74937;44.534;18.684;2024-02-04T04:37:07;98.18;;;47.53;;
84711;SDS011;74937;44.534;18.684;2024-02-04T04:39:33;99.60;;;46.42;;
84711;SDS011;74937;44.534;18.684;2024-02-04T04:41:58;96.32;;;45.80;;
84711;SDS011;74937;44.534;18.684;2024-02-04T04:44:24;94.82;;;45.53;;
84711;SDS011;74937;44.534;18.684;2024-02-04T04:46:50;92.03;;;42.13;;
84711;SDS011;74937;44.534;18.684;2024-02-04T04:49:15;84.00;;;42.85;;
84711;SDS011;74937;44.534;18.684;2024-02-04T04:51:45;94.18;;;44.13;;
84711;SDS011;74937;44.534;18.684;2024-02-04T04:54:13;92.15;;;45.05;;
84711;SDS011;74937;44.534;18.684;2024-02-04T04:56:39;102.53;;;45.85;;
84711;SDS011;74937;44.534;18.684;2024-02-04T05:01:32;91.95;;;42.97;;
84711;SDS011;74937;44.534;18.684;2024-02-04T05:03:58;95.00;;;42.83;;
84711;SDS011;74937;44.534;18.684;2024-02-04T05:06:23;82.68;;;40.97;;
84711;SDS011;74937;44.534;18.684;2024-02-04T05:08:49;84.03;;;39.95;;
84711;SDS011;74937;44.534;18.684;2024-02-04T05:11:15;83.55;;;39.40;;
84711;SDS011;74937;44.534;18.684;2024-02-04T05:13:40;72.43;;;38.03;;
84711;SDS011;74937;44.534;18.684;2024-02-04T05:16:06;79.80;;;38.03;;
84711;SDS011;74937;44.534;18.684;2024-02-04T05:18:32;74.30;;;35.83;;
84711;SDS011;74937;44.534;18.684;2024-02-04T05:20:58;71.82;;;35.42;;
84711;SDS011;74937;44.534;18.684;2024-02-04T05:23:23;73.45;;;38.33;;
84711;SDS011;74937;44.534;18.684;2024-02-04T05:25:49;79.18;;;38.20;;
84711;SDS011;74937;44.534;18.684;2024-02-04T05:28:15;79.82;;;37.25;;
84711;SDS011;74937;44.534;18.684;2024-02-04T05:30:41;77.28;;;38.00;;
84711;SDS011;74937;44.534;18.684;2024-02-04T05:33:06;79.20;;;37.90;;
84711;SDS011;74937;44.534;18.684;2024-02-04T05:35:32;76.00;;;35.95;;
84711;SDS011;74937;44.534;18.684;2024-02-04T05:37:58;80.25;;;38.60;;
84711;SDS011;74937;44.534;18.684;2024-02-04T05:40:24;79.65;;;37.95;;
84711;SDS011;74937;44.534;18.684;2024-02-04T05:42:49;72.00;;;33.45;;
84711;SDS011;74937;44.534;18.684;2024-02-04T05:47:41;81.60;;;34.13;;
84711;SDS011;74937;44.534;18.684;2024-02-04T05:50:08;72.80;;;35.45;;
84711;SDS011;74937;44.534;18.684;2024-02-04T05:52:33;64.88;;;33.40;;
84711;SDS011;74937;44.534;18.684;2024-02-04T05:54:59;62.88;;;31.00;;
84711;SDS011;74937;44.534;18.684;2024-02-04T05:57:25;62.83;;;32.22;;
84711;SDS011;74937;44.534;18.684;2024-02-04T05:59:51;71.53;;;32.13;;
84711;SDS011;74937;44.534;18.684;2024-02-04T06:02:18;64.32;;;31.38;;
84711;SDS011;74937;44.534;18.684;2024-02-04T06:04:43;77.45;;;34.05;;
84711;SDS011;74937;44.534;18.684;2024-02-04T06:07:09;64.13;;;32.45;;
84711;SDS011;74937;44.534;18.684;2024-02-04T06:09:35;77.35;;;37.35;;
84711;SDS011;74937;44.534;18.684;2024-02-04T06:12:01;75.57;;;37.65;;
84711;SDS011;74937;44.534;18.684;2024-02-04T06:14:27;103.97;;;42.47;;
84711;SDS011;74937;44.534;18.684;2024-02-04T06:16:53;99.30;;;44.22;;
84711;SDS011;74937;44.534;18.684;2024-02-04T06:19:18;103.30;;;44.88;;
84711;SDS011;74937;44.534;18.684;2024-02-04T06:21:44;114.63;;;47.08;;
84711;SDS011;74937;44.534;18.684;2024-02-04T06:24:10;108.07;;;46.15;;
84711;SDS011;74937;44.534;18.684;2024-02-04T06:29:04;108.63;;;46.10;;
84711;SDS011;74937;44.534;18.684;2024-02-04T06:31:30;96.20;;;41.28;;
84711;SDS011;74937;44.534;18.684;2024-02-04T06:33:56;88.63;;;39.20;;
84711;SDS011;74937;44.534;18.684;2024-02-04T06:36:22;76.63;;;39.05;;
84711;SDS011;74937;44.534;18.684;2024-02-04T06:38:48;82.03;;;36.55;;
84711;SDS011;74937;44.534;18.684;2024-02-04T06:41:14;76.45;;;37.35;;
84711;SDS011;74937;44.534;18.684;2024-02-04T06:43:39;79.85;;;37.10;;
84711;SDS011;74937;44.534;18.684;2024-02-04T06:46:05;83.22;;;37.15;;
84711;SDS011;74937;44.534;18.684;2024-02-04T06:48:31;86.30;;;38.45;;
84711;SDS011;74937;44.534;18.684;2024-02-04T06:50:56;106.30;;;44.10;;
84711;SDS011;74937;44.534;18.684;2024-02-04T06:53:22;126.68;;;51.95;;
84711;SDS011;74937;44.534;18.684;2024-02-04T06:55:48;115.72;;;53.63;;
84711;SDS011;74937;44.534;18.684;2024-02-04T06:58:14;151.15;;;63.05;;
84711;SDS011;74937;44.534;18.684;2024-02-04T07:00:39;162.18;;;67.90;;
84711;SDS011;74937;44.534;18.684;2024-02-04T07:03:05;163.60;;;67.60;;
84711;SDS011;74937;44.534;18.684;2024-02-04T07:05:31;106.15;;;51.50;;
84711;SDS011;74937;44.534;18.684;2024-02-04T07:07:58;87.22;;;40.25;;
84711;SDS011;74937;44.534;18.684;2024-02-04T07:10:25;68.22;;;31.65;;
84711;SDS011;74937;44.534;18.684;2024-02-04T07:12:56;58.40;;;28.90;;
84711;SDS011;74937;44.534;18.684;2024-02-04T07:15:22;62.47;;;33.63;;
84711;SDS011;74937;44.534;18.684;2024-02-04T07:17:48;84.28;;;40.80;;
84711;SDS011;74937;44.534;18.684;2024-02-04T07:20:13;114.68;;;54.03;;
84711;SDS011;74937;44.534;18.684;2024-02-04T07:22:39;109.53;;;56.58;;
84711;SDS011;74937;44.534;18.684;2024-02-04T07:25:05;107.82;;;54.22;;
84711;SDS011;74937;44.534;18.684;2024-02-04T07:29:57;87.75;;;44.70;;
84711;SDS011;74937;44.534;18.684;2024-02-04T07:32:23;85.07;;;43.42;;
84711;SDS011;74937;44.534;18.684;2024-02-04T07:34:49;96.43;;;44.17;;
84711;SDS011;74937;44.534;18.684;2024-02-04T07:37:15;77.53;;;40.33;;
84711;SDS011;74937;44.534;18.684;2024-02-04T07:39:42;74.43;;;36.83;;
84711;SDS011;74937;44.534;18.684;2024-02-04T07:42:08;75.43;;;36.75;;
84711;SDS011;74937;44.534;18.684;2024-02-04T07:44:34;66.38;;;32.80;;
84711;SDS011;74937;44.534;18.684;2024-02-04T07:46:59;64.07;;;33.50;;
84711;SDS011;74937;44.534;18.684;2024-02-04T07:49:25;71.70;;;35.42;;
84711;SDS011;74937;44.534;18.684;2024-02-04T07:51:51;148.32;;;60.30;;
84711;SDS011;74937;44.534;18.684;2024-02-04T07:54:16;130.00;;;57.65;;
84711;SDS011;74937;44.534;18.684;2024-02-04T07:56:42;114.40;;;57.20;;
84711;SDS011;74937;44.534;18.684;2024-02-04T07:59:08;113.70;;;55.30;;
84711;SDS011;74937;44.534;18.684;2024-02-04T08:01:33;117.50;;;56.08;;
84711;SDS011;74937;44.534;18.684;2024-02-04T08:03:59;128.57;;;65.10;;
84711;SDS011;74937;44.534;18.684;2024-02-04T08:06:25;121.13;;;60.47;;
84711;SDS011;74937;44.534;18.684;2024-02-04T08:08:51;97.88;;;49.75;;
84711;SDS011;74937;44.534;18.684;2024-02-04T08:11:17;88.28;;;47.50;;
84711;SDS011;74937;44.534;18.684;2024-02-04T08:13:43;81.03;;;41.65;;
84711;SDS011;74937;44.534;18.684;2024-02-04T08:16:09;66.80;;;35.15;;
84711;SDS011;74937;44.534;18.684;2024-02-04T08:21:01;64.22;;;33.35;;
84711;SDS011;74937;44.534;18.684;2024-02-04T08:23:27;57.03;;;32.22;;
84711;SDS011;74937;44.534;18.684;2024-02-04T08:25:53;56.53;;;32.67;;
84711;SDS011;74937;44.534;18.684;2024-02-04T08:28:19;57.78;;;32.03;;
84711;SDS011;74937;44.534;18.684;2024-02-04T08:30:45;66.88;;;34.42;;
84711;SDS011;74937;44.534;18.684;2024-02-04T08:33:10;59.17;;;33.42;;
84711;SDS011;74937;44.534;18.684;2024-02-04T08:35:36;59.03;;;33.60;;
84711;SDS011;74937;44.534;18.684;2024-02-04T08:38:02;53.63;;;30.85;;
84711;SDS011;74937;44.534;18.684;2024-02-04T08:40:27;57.92;;;32.53;;
84711;SDS011;74937;44.534;18.684;2024-02-04T08:42:53;60.60;;;31.58;;
84711;SDS011;74937;44.534;18.684;2024-02-04T08:45:20;55.60;;;31.90;;
84711;SDS011;74937;44.534;18.684;2024-02-04T08:47:46;70.68;;;37.67;;
84711;SDS011;74937;44.534;18.684;2024-02-04T08:50:11;138.98;;;71.22;;
84711;SDS011;74937;44.534;18.684;2024-02-04T08:52:37;128.77;;;65.93;;
84711;SDS011;74937;44.534;18.684;2024-02-04T08:55:03;111.65;;;59.45;;
84711;SDS011;74937;44.534;18.684;2024-02-04T08:57:29;97.95;;;55.58;;
84711;SDS011;74937;44.534;18.684;2024-02-04T08:59:55;100.20;;;51.08;;
84711;SDS011;74937;44.534;18.684;2024-02-04T09:02:20;98.47;;;54.95;;
84711;SDS011;74937;44.534;18.684;2024-02-04T09:04:46;96.25;;;51.17;;
84711;SDS011;74937;44.534;18.684;2024-02-04T09:07:12;89.78;;;47.90;;
84711;SDS011;74937;44.534;18.684;2024-02-04T09:09:37;94.60;;;52.65;;
84711;SDS011;74937;44.534;18.684;2024-02-04T09:12:03;107.43;;;52.88;;
84711;SDS011;74937;44.534;18.684;2024-02-04T09:14:29;103.40;;;56.08;;
84711;SDS011;74937;44.534;18.684;2024-02-04T09:16:55;101.72;;;55.85;;
84711;SDS011;74937;44.534;18.684;2024-02-04T09:19:20;100.25;;;52.63;;
84711;SDS011;74937;44.534;18.684;2024-02-04T09:21:46;100.80;;;54.33;;
84711;SDS011;74937;44.534;18.684;2024-02-04T09:24:12;106.70;;;54.40;;
84711;SDS011;74937;44.534;18.684;2024-02-04T09:26:38;94.50;;;51.45;;
84711;SDS011;74937;44.534;18.684;2024-02-04T09:29:04;78.95;;;42.05;;
84711;SDS011;74937;44.534;18.684;2024-02-04T09:31:31;68.57;;;39.60;;
84711;SDS011;74937;44.534;18.684;2024-02-04T09:33:56;68.35;;;38.25;;
84711;SDS011;74937;44.534;18.684;2024-02-04T09:36:23;66.18;;;36.83;;
84711;SDS011;74937;44.534;18.684;2024-02-04T09:38:48;72.85;;;36.58;;
84711;SDS011;74937;44.534;18.684;2024-02-04T09:41:14;72.78;;;38.38;;
84711;SDS011;74937;44.534;18.684;2024-02-04T09:43:40;70.53;;;42.42;;
84711;SDS011;74937;44.534;18.684;2024-02-04T09:46:06;85.57;;;46.83;;
84711;SDS011;74937;44.534;18.684;2024-02-04T09:48:32;83.53;;;44.97;;
84711;SDS011;74937;44.534;18.684;2024-02-04T09:50:58;87.55;;;43.55;;
84711;SDS011;74937;44.534;18.684;2024-02-04T09:53:34;81.78;;;45.92;;
84711;SDS011;74937;44.534;18.684;2024-02-04T09:56:04;89.68;;;49.45;;
84711;SDS011;74937;44.534;18.684;2024-02-04T09:58:33;93.40;;;49.00;;
84711;SDS011;74937;44.534;18.684;2024-02-04T10:01:02;88.90;;;48.67;;
84711;SDS011;74937;44.534;18.684;2024-02-04T10:03:33;86.18;;;47.78;;
84711;SDS011;74937;44.534;18.684;2024-02-04T10:05:59;70.28;;;41.97;;
84711;SDS011;74937;44.534;18.684;2024-02-04T10:08:25;63.17;;;36.08;;
84711;SDS011;74937;44.534;18.684;2024-02-04T10:10:51;72.57;;;41.70;;
84711;SDS011;74937;44.534;18.684;2024-02-04T10:13:17;79.38;;;43.95;;
84711;SDS011;74937;44.534;18.684;2024-02-04T10:15:42;81.75;;;44.00;;
84711;SDS011;74937;44.534;18.684;2024-02-04T10:18:08;76.57;;;44.47;;
84711;SDS011;74937;44.534;18.684;2024-02-04T10:20:34;79.82;;;44.65;;
84711;SDS011;74937;44.534;18.684;2024-02-04T10:23:00;74.35;;;41.13;;
84711;SDS011;74937;44.534;18.684;2024-02-04T10:25:26;65.90;;;38.15;;
84711;SDS011;74937;44.534;18.684;2024-02-04T10:27:52;72.20;;;39.88;;
84711;SDS011;74937;44.534;18.684;2024-02-04T10:30:21;73.65;;;41.10;;
84711;SDS011;74937;44.534;18.684;2024-02-04T10:32:49;65.70;;;36.00;;
84711;SDS011;74937;44.534;18.684;2024-02-04T10:35:16;64.32;;;37.92;;
84711;SDS011;74937;44.534;18.684;2024-02-04T10:37:44;67.30;;;34.90;;
84711;SDS011;74937;44.534;18.684;2024-02-04T10:40:10;64.63;;;35.35;;
84711;SDS011;74937;44.534;18.684;2024-02-04T10:42:36;49.60;;;26.83;;
84711;SDS011;74937;44.534;18.684;2024-02-04T10:45:04;50.45;;;28.50;;
84711;SDS011;74937;44.534;18.684;2024-02-04T10:47:36;47.75;;;28.02;;
84711;SDS011;74937;44.534;18.684;2024-02-04T10:50:03;46.97;;;28.38;;
84711;SDS011;74937;44.534;18.684;2024-02-04T10:52:33;47.50;;;26.45;;
84711;SDS011;74937;44.534;18.684;2024-02-04T10:55:10;46.28;;;27.08;;
84711;SDS011;74937;44.534;18.684;2024-02-04T10:57:39;37.33;;;24.65;;
84711;SDS011;74937;44.534;18.684;2024-02-04T11:00:06;34.83;;;20.17;;
84711;SDS011;74937;44.534;18.684;2024-02-04T11:02:34;30.10;;;18.35;;
84711;SDS011;74937;44.534;18.684;2024-02-04T11:05:02;34.58;;;19.55;;
84711;SDS011;74937;44.534;18.684;2024-02-04T11:07:31;31.38;;;19.15;;
84711;SDS011;74937;44.534;18.684;2024-02-04T11:09:57;35.83;;;21.88;;
84711;SDS011;74937;44.534;18.684;2024-02-04T11:12:23;50.78;;;29.25;;
84711;SDS011;74937;44.534;18.684;2024-02-04T11:14:51;43.55;;;26.88;;
84711;SDS011;74937;44.534;18.684;2024-02-04T11:25:46;52.90;;;30.17;;
84711;SDS011;74937;44.534;18.684;2024-02-04T11:28:15;52.40;;;29.23;;
84711;SDS011;74937;44.534;18.684;2024-02-04T11:30:44;51.33;;;28.17;;
84711;SDS011;74937;44.534;18.684;2024-02-04T11:33:11;47.63;;;28.00;;
84711;SDS011;74937;44.534;18.684;2024-02-04T11:35:37;40.75;;;23.23;;
84711;SDS011;74937;44.534;18.684;2024-02-04T11:38:03;35.92;;;19.63;;
84711;SDS011;74937;44.534;18.684;2024-02-04T11:40:36;33.55;;;18.67;;
84711;SDS011;74937;44.534;18.684;2024-02-04T11:43:12;29.58;;;17.60;;
84711;SDS011;74937;44.534;18.684;2024-02-04T11:45:40;31.88;;;17.98;;
84711;SDS011;74937;44.534;18.684;2024-02-04T11:48:10;29.63;;;17.48;;
84711;SDS011;74937;44.534;18.684;2024-02-04T11:50:36;28.98;;;16.08;;
84711;SDS011;74937;44.534;18.684;2024-02-04T11:53:06;30.48;;;17.45;;
84711;SDS011;74937;44.534;18.684;2024-02-04T11:55:36;33.08;;;17.45;;
84711;SDS011;74937;44.534;18.684;2024-02-04T11:58:07;32.20;;;18.08;;
84711;SDS011;74937;44.534;18.684;2024-02-04T12:00:34;30.92;;;17.08;;
84711;SDS011;74937;44.534;18.684;2024-02-04T12:05:34;24.85;;;15.90;;
84711;SDS011;74937;44.534;18.684;2024-02-04T12:08:04;29.48;;;15.48;;
84711;SDS011;74937;44.534;18.684;2024-02-04T12:10:31;31.60;;;17.73;;
84711;SDS011;74937;44.534;18.684;2024-02-04T12:13:04;25.10;;;16.30;;
84711;SDS011;74937;44.534;18.684;2024-02-04T12:15:34;25.98;;;15.30;;
84711;SDS011;74937;44.534;18.684;2024-02-04T12:18:07;23.95;;;13.90;;
84711;SDS011;74937;44.534;18.684;2024-02-04T12:20:34;29.23;;;17.63;;
84711;SDS011;74937;44.534;18.684;2024-02-04T12:23:04;28.17;;;16.95;;
84711;SDS011;74937;44.534;18.684;2024-02-04T12:25:34;36.97;;;20.23;;
84711;SDS011;74937;44.534;18.684;2024-02-04T12:28:01;33.13;;;20.38;;
84711;SDS011;74937;44.534;18.684;2024-02-04T12:30:28;38.50;;;21.05;;
84711;SDS011;74937;44.534;18.684;2024-02-04T12:32:55;40.25;;;22.30;;
84711;SDS011;74937;44.534;18.684;2024-02-04T12:35:29;38.80;;;23.45;;
84711;SDS011;74937;44.534;18.684;2024-02-04T12:42:57;33.90;;;19.17;;
84711;SDS011;74937;44.534;18.684;2024-02-04T12:45:25;33.90;;;19.52;;
84711;SDS011;74937;44.534;18.684;2024-02-04T12:47:52;37.70;;;19.08;;
84711;SDS011;74937;44.534;18.684;2024-02-04T12:50:19;31.65;;;17.33;;
84711;SDS011;74937;44.534;18.684;2024-02-04T12:52:46;23.88;;;14.63;;
84711;SDS011;74937;44.534;18.684;2024-02-04T12:55:45;28.25;;;15.70;;
84711;SDS011;74937;44.534;18.684;2024-02-04T12:58:05;27.35;;;15.05;;
84711;SDS011;74937;44.534;18.684;2024-02-04T13:00:34;24.70;;;13.40;;
84711;SDS011;74937;44.534;18.684;2024-02-04T13:03:02;24.00;;;13.40;;
84711;SDS011;74937;44.534;18.684;2024-02-04T13:05:29;24.17;;;13.10;;
84711;SDS011;74937;44.534;18.684;2024-02-04T13:07:59;24.98;;;12.70;;
84711;SDS011;74937;44.534;18.684;2024-02-04T13:10:31;19.10;;;11.13;;
84711;SDS011;74937;44.534;18.684;2024-02-04T13:13:08;16.67;;;9.73;;
84711;SDS011;74937;44.534;18.684;2024-02-04T13:15:42;19.65;;;12.02;;
84711;SDS011;74937;44.534;18.684;2024-02-04T13:18:09;23.55;;;12.75;;
84711;SDS011;74937;44.534;18.684;2024-02-04T13:20:41;23.95;;;12.50;;
84711;SDS011;74937;44.534;18.684;2024-02-04T13:23:07;22.25;;;11.82;;
84711;SDS011;74937;44.534;18.684;2024-02-04T13:27:59;16.70;;;10.50;;
84711;SDS011;74937;44.534;18.684;2024-02-04T13:30:25;21.20;;;10.77;;
84711;SDS011;74937;44.534;18.684;2024-02-04T13:32:51;16.65;;;10.35;;
84711;SDS011;74937;44.534;18.684;2024-02-04T13:37:46;23.83;;;13.73;;
84711;SDS011;74937;44.534;18.684;2024-02-04T13:40:14;21.77;;;13.73;;
84711;SDS011;74937;44.534;18.684;2024-02-04T13:42:41;20.95;;;12.55;;
84711;SDS011;74937;44.534;18.684;2024-02-04T13:45:07;23.00;;;13.20;;
84711;SDS011;74937;44.534;18.684;2024-02-04T13:47:34;24.55;;;13.95;;
84711;SDS011;74937;44.534;18.684;2024-02-04T13:50:00;23.10;;;13.88;;
84711;SDS011;74937;44.534;18.684;2024-02-04T13:52:26;23.42;;;13.38;;
84711;SDS011;74937;44.534;18.684;2024-02-04T13:54:52;26.60;;;14.27;;
84711;SDS011;74937;44.534;18.684;2024-02-04T13:57:19;28.95;;;15.25;;
84711;SDS011;74937;44.534;18.684;2024-02-04T13:59:45;25.25;;;15.18;;
84711;SDS011;74937;44.534;18.684;2024-02-04T14:02:10;43.92;;;25.50;;
84711;SDS011;74937;44.534;18.684;2024-02-04T14:04:36;28.88;;;17.15;;
84711;SDS011;74937;44.534;18.684;2024-02-04T14:07:02;25.70;;;15.85;;
84711;SDS011;74937;44.534;18.684;2024-02-04T14:09:28;25.55;;;14.90;;
84711;SDS011;74937;44.534;18.684;2024-02-04T14:11:54;27.85;;;16.63;;
84711;SDS011;74937;44.534;18.684;2024-02-04T14:14:20;31.25;;;19.58;;
84711;SDS011;74937;44.534;18.684;2024-02-04T14:16:47;32.13;;;18.95;;
84711;SDS011;74937;44.534;18.684;2024-02-04T14:19:13;31.33;;;17.95;;
84711;SDS011;74937;44.534;18.684;2024-02-04T14:21:39;28.42;;;18.10;;
84711;SDS011;74937;44.534;18.684;2024-02-04T14:24:06;31.63;;;18.05;;
84711;SDS011;74937;44.534;18.684;2024-02-04T14:26:33;33.00;;;18.60;;
84711;SDS011;74937;44.534;18.684;2024-02-04T14:28:59;28.55;;;18.90;;
84711;SDS011;74937;44.534;18.684;2024-02-04T14:31:25;30.30;;;17.48;;
84711;SDS011;74937;44.534;18.684;2024-02-04T14:33:51;31.13;;;18.08;;
84711;SDS011;74937;44.534;18.684;2024-02-04T14:36:16;33.13;;;19.70;;
84711;SDS011;74937;44.534;18.684;2024-02-04T14:38:42;33.35;;;17.75;;
84711;SDS011;74937;44.534;18.684;2024-02-04T14:41:08;32.53;;;17.50;;
84711;SDS011;74937;44.534;18.684;2024-02-04T14:43:35;34.63;;;20.17;;